createdAt,value
2018-06-11T00:01:44.438Z,7.30
2018-06-11T00:04:19.580Z,8.03
2018-06-11T00:06:53.877Z,7.37
2018-06-11T00:09:28.466Z,7.50
2018-06-11T00:12:03.240Z,8.03
2018-06-11T00:14:38.152Z,7.50
2018-06-11T00:17:12.982Z,8.90
2018-06-11T00:19:47.365Z,8.47
2018-06-11T00:22:22.199Z,7.67
2018-06-11T00:24:57.297Z,8.30
2018-06-11T00:27:31.546Z,8.77
2018-06-11T00:30:06.252Z,8.47
2018-06-11T00:32:40.903Z,9.10
2018-06-11T00:35:15.750Z,7.70
2018-06-11T00:37:50.399Z,7.50
2018-06-11T00:40:25.082Z,7.73
2018-06-11T00:42:59.724Z,8.03
2018-06-11T00:45:34.889Z,7.60
2018-06-11T00:48:09.201Z,7.50
2018-06-11T00:50:43.978Z,7.50
2018-06-11T00:53:18.986Z,8.33
2018-06-11T00:56:07.624Z,8.00
2018-06-11T00:58:42.532Z,8.63
2018-06-11T01:01:17.336Z,7.70
2018-06-11T01:03:52.048Z,8.20
2018-06-11T01:06:27.346Z,7.67
2018-06-11T01:09:02.408Z,8.03
2018-06-11T01:11:37.017Z,7.30
2018-06-11T01:14:13.031Z,7.00
2018-06-11T01:16:48.018Z,7.20
2018-06-11T01:19:22.257Z,8.53
2018-06-11T01:21:57.311Z,6.83
2018-06-11T01:24:32.019Z,7.40
2018-06-11T01:27:06.472Z,7.17
2018-06-11T01:29:41.230Z,6.63
2018-06-11T01:32:16.031Z,7.10
2018-06-11T01:34:50.902Z,7.80
2018-06-11T01:37:25.544Z,7.27
2018-06-11T01:40:00.394Z,8.20
2018-06-11T01:42:35.856Z,6.33
2018-06-11T01:45:10.779Z,7.50
2018-06-11T01:47:45.317Z,8.30
2018-06-11T01:50:26.748Z,7.70
2018-06-11T01:53:01.744Z,7.23
2018-06-11T01:55:36.598Z,7.50
2018-06-11T01:58:11.266Z,7.13
2018-06-11T02:00:46.022Z,6.50
2018-06-11T02:03:20.693Z,6.77
2018-06-11T02:05:55.426Z,6.97
2018-06-11T02:08:30.123Z,7.40
2018-06-11T02:11:04.883Z,8.10
2018-06-11T02:13:39.638Z,7.90
2018-06-11T02:16:14.392Z,7.23
2018-06-11T02:18:49.434Z,6.80
2018-06-11T02:21:23.961Z,7.10
2018-06-11T02:23:58.767Z,5.90
2018-06-11T02:26:33.534Z,6.40
2018-06-11T02:29:08.156Z,6.80
2018-06-11T02:31:42.857Z,7.43
2018-06-11T02:34:17.591Z,6.53
2018-06-11T02:36:52.280Z,7.03
2018-06-11T02:39:27.047Z,7.07
2018-06-11T02:42:01.763Z,7.17
2018-06-11T02:44:36.481Z,7.30
2018-06-11T02:47:12.093Z,7.67
2018-06-11T02:49:47.084Z,8.13
2018-06-11T02:52:21.657Z,6.53
2018-06-11T02:54:56.312Z,6.90
2018-06-11T02:57:31.548Z,7.90
2018-06-11T03:00:06.201Z,8.27
2018-06-11T03:02:40.558Z,7.53
2018-06-11T03:05:15.193Z,7.83
2018-06-11T03:07:50.002Z,7.60
2018-06-11T03:10:25.277Z,7.40
2018-06-11T03:12:59.494Z,6.80
2018-06-11T03:15:34.228Z,7.00
2018-06-11T03:18:09.230Z,6.77
2018-06-11T03:20:43.642Z,6.40
2018-06-11T03:23:25.459Z,7.03
2018-06-11T03:26:00.531Z,7.77
2018-06-11T03:28:35.373Z,6.83
2018-06-11T03:31:09.545Z,6.80
2018-06-11T03:33:47.488Z,8.47
2018-06-11T03:36:22.375Z,7.13
2018-06-11T03:38:56.832Z,6.40
2018-06-11T03:41:31.626Z,6.50
2018-06-11T03:44:06.463Z,7.20
2018-06-11T03:46:42.026Z,7.43
2018-06-11T03:49:16.878Z,7.47
2018-06-11T03:51:51.392Z,6.10
2018-06-11T03:54:26.108Z,7.10
2018-06-11T03:57:00.668Z,7.30
2018-06-11T03:59:35.473Z,6.93
2018-06-11T04:02:10.149Z,7.37
2018-06-11T04:04:44.962Z,7.00
2018-06-11T04:07:19.667Z,8.30
2018-06-11T04:09:54.450Z,6.93
2018-06-11T04:12:29.098Z,6.70
2018-06-11T04:15:03.901Z,6.87
2018-06-11T04:17:38.629Z,6.83
2018-06-11T04:20:13.685Z,7.33
2018-06-11T04:22:48.041Z,6.43
2018-06-11T04:25:22.702Z,6.53
2018-06-11T04:27:57.356Z,6.00
2018-06-11T04:30:31.945Z,6.50
2018-06-11T04:33:06.741Z,6.17
2018-06-11T04:35:41.337Z,6.40
2018-06-11T04:38:16.134Z,5.80
2018-06-11T04:40:50.950Z,6.37
2018-06-11T04:43:25.550Z,5.70
2018-06-11T04:46:00.369Z,5.57
2018-06-11T04:48:35.405Z,5.90
2018-06-11T04:51:10.242Z,6.03
2018-06-11T04:53:44.495Z,5.23
2018-06-11T04:56:19.290Z,5.20
2018-06-11T04:58:53.991Z,5.67
2018-06-11T05:01:28.771Z,5.23
2018-06-11T05:04:03.553Z,5.20
2018-06-11T05:06:38.366Z,5.20
2018-06-11T05:09:13.053Z,5.30
2018-06-11T05:11:48.126Z,5.73
2018-06-11T05:14:22.250Z,5.70
2018-06-11T05:16:56.974Z,4.93
2018-06-11T05:19:32.596Z,5.43
2018-06-11T05:22:07.697Z,5.60
2018-06-11T05:24:42.814Z,5.00
2018-06-11T05:27:17.227Z,4.93
2018-06-11T05:29:51.877Z,5.30
2018-06-11T05:32:26.425Z,4.73
2018-06-11T05:35:01.038Z,4.33
2018-06-11T05:37:35.726Z,5.23
2018-06-11T05:40:10.642Z,4.30
2018-06-11T05:42:45.310Z,4.20
2018-06-11T05:45:19.952Z,4.60
2018-06-11T05:47:54.774Z,3.70
2018-06-11T05:50:29.758Z,4.33
2018-06-11T05:53:04.403Z,4.30
2018-06-11T05:55:38.930Z,3.93
2018-06-11T05:58:13.642Z,3.67
2018-06-11T06:00:48.473Z,4.40
2018-06-11T06:03:23.736Z,4.50
2018-06-11T06:05:58.540Z,3.77
2018-06-11T06:08:32.717Z,4.57
2018-06-11T06:11:07.298Z,4.10
2018-06-11T06:13:42.093Z,3.80
2018-06-11T06:16:16.844Z,4.43
2018-06-11T06:18:51.634Z,4.37
2018-06-11T06:21:26.302Z,4.30
2018-06-11T06:24:00.938Z,3.50
2018-06-11T06:26:35.527Z,3.77
2018-06-11T06:29:10.258Z,3.97
2018-06-11T06:31:44.962Z,3.77
2018-06-11T06:34:19.791Z,4.40
2018-06-11T06:36:54.299Z,3.27
2018-06-11T06:39:28.984Z,3.90
2018-06-11T06:42:03.509Z,3.53
2018-06-11T06:44:38.289Z,3.10
2018-06-11T06:47:12.998Z,3.10
2018-06-11T06:49:47.939Z,3.20
2018-06-11T06:52:22.552Z,3.93
2018-06-11T06:54:57.244Z,4.50
2018-06-11T06:57:32.220Z,3.50
2018-06-11T07:00:06.590Z,4.30
2018-06-11T07:02:41.245Z,3.30
2018-06-11T07:05:15.984Z,3.73
2018-06-11T07:07:50.516Z,3.20
2018-06-11T07:10:25.330Z,3.40
2018-06-11T07:13:06.808Z,3.50
2018-06-11T07:15:41.782Z,3.33
2018-06-11T07:18:16.616Z,3.70
2018-06-11T07:20:50.820Z,3.50
2018-06-11T07:23:25.757Z,4.87
2018-06-11T07:26:01.083Z,3.77
2018-06-11T07:28:35.843Z,2.80
2018-06-11T07:31:10.392Z,3.53
2018-06-11T07:33:45.166Z,3.50
2018-06-11T07:36:20.173Z,3.63
2018-06-11T07:38:54.704Z,3.17
2018-06-11T07:41:29.578Z,3.40
2018-06-11T07:44:04.057Z,3.80
2018-06-11T07:46:38.553Z,3.13
2018-06-11T07:49:13.563Z,3.53
2018-06-11T07:51:48.103Z,3.80
2018-06-11T07:54:22.766Z,3.67
2018-06-11T07:56:57.327Z,4.07
2018-06-11T07:59:32.439Z,3.13
2018-06-11T08:02:07.066Z,3.77
2018-06-11T08:04:41.559Z,3.50
2018-06-11T08:07:16.451Z,3.30
2018-06-11T08:09:50.914Z,3.53
2018-06-11T08:12:25.680Z,3.87
2018-06-11T08:15:00.616Z,3.20
2018-06-11T08:17:35.172Z,3.33
2018-06-11T08:20:09.962Z,3.30
2018-06-11T08:22:44.749Z,3.13
2018-06-11T08:25:19.375Z,3.17
2018-06-11T08:27:54.474Z,3.47
2018-06-11T08:30:28.858Z,3.73
2018-06-11T08:33:04.045Z,3.20
2018-06-11T08:35:38.216Z,2.90
2018-06-11T08:38:13.041Z,3.20
2018-06-11T08:40:47.818Z,3.30
2018-06-11T08:43:22.776Z,3.30
2018-06-11T08:45:57.206Z,3.60
2018-06-11T08:48:31.942Z,2.90
2018-06-11T08:51:06.714Z,3.27
2018-06-11T08:53:41.583Z,3.20
2018-06-11T08:56:16.800Z,3.20
2018-06-11T08:58:52.210Z,2.97
2018-06-11T09:01:26.518Z,3.27
2018-06-11T09:04:01.356Z,3.60
2018-06-11T09:06:36.145Z,3.50
2018-06-11T09:09:10.874Z,4.23
2018-06-11T09:11:45.418Z,3.30
2018-06-11T09:14:20.158Z,3.60
2018-06-11T09:16:54.175Z,4.00
2018-06-11T09:19:28.925Z,3.63
2018-06-11T09:22:03.727Z,3.40
2018-06-11T09:24:38.581Z,3.97
2018-06-11T09:27:13.431Z,3.30
2018-06-11T09:29:48.152Z,3.10
2018-06-11T09:32:22.845Z,4.13
2018-06-11T09:34:57.430Z,4.13
2018-06-11T09:37:31.989Z,3.63
2018-06-11T09:40:06.660Z,4.23
2018-06-11T09:42:41.554Z,3.50
2018-06-11T09:45:16.029Z,3.60
2018-06-11T09:47:50.665Z,4.17
2018-06-11T09:50:25.399Z,4.47
2018-06-11T09:53:00.041Z,4.30
2018-06-11T09:55:34.827Z,4.60
2018-06-11T09:58:09.574Z,4.37
2018-06-11T10:00:44.371Z,4.13
2018-06-11T10:03:19.105Z,3.67
2018-06-11T10:05:53.775Z,4.20
2018-06-11T10:08:28.365Z,4.60
2018-06-11T10:11:03.084Z,4.00
2018-06-11T10:13:37.678Z,4.30
2018-06-11T10:16:12.307Z,3.80
2018-06-11T10:18:46.826Z,4.67
2018-06-11T10:21:21.603Z,4.57
2018-06-11T10:23:56.159Z,3.73
2018-06-11T10:26:31.055Z,3.57
2018-06-11T10:29:05.608Z,4.47
2018-06-11T10:31:40.338Z,4.50
2018-06-11T10:34:14.966Z,3.90
2018-06-11T10:36:49.587Z,4.73
2018-06-11T10:39:24.271Z,4.43
2018-06-11T10:41:59.333Z,5.50
2018-06-11T10:44:33.790Z,3.97
2018-06-11T10:47:08.224Z,4.57
2018-06-11T10:49:42.908Z,3.90
2018-06-11T10:52:17.818Z,3.90
2018-06-11T10:54:52.376Z,3.20
2018-06-11T10:57:27.386Z,3.80
2018-06-11T11:00:01.702Z,4.20
2018-06-11T11:02:36.382Z,4.93
2018-06-11T11:05:11.966Z,4.40
2018-06-11T11:07:47.187Z,5.03
2018-06-11T11:10:21.427Z,4.90
2018-06-11T11:12:56.150Z,5.23
2018-06-11T11:15:30.659Z,5.33
2018-06-11T11:18:05.405Z,4.03
2018-06-11T11:20:40.974Z,5.20
2018-06-11T11:23:16.148Z,3.77
2018-06-11T11:25:50.753Z,4.50
2018-06-11T11:28:25.105Z,3.80
2018-06-11T11:30:59.911Z,5.10
2018-06-11T11:33:34.708Z,4.97
2018-06-11T11:36:09.385Z,4.17
2018-06-11T11:38:44.166Z,4.13
2018-06-11T11:41:18.825Z,4.20
2018-06-11T11:43:53.185Z,4.13
2018-06-11T11:46:28.019Z,4.17
2018-06-11T11:49:02.814Z,5.67
2018-06-11T11:51:37.662Z,4.00
2018-06-11T11:54:12.309Z,3.87
2018-06-11T11:56:46.885Z,4.60
2018-06-11T11:59:21.904Z,4.90
2018-06-11T12:01:56.171Z,4.73
2018-06-11T12:04:30.693Z,4.33
2018-06-11T12:07:05.503Z,4.47
2018-06-11T12:09:39.924Z,6.23
2018-06-11T12:12:14.919Z,4.40
2018-06-11T12:14:49.513Z,5.50
2018-06-11T12:17:24.104Z,4.20
2018-06-11T12:19:59.240Z,5.30
2018-06-11T12:22:33.486Z,4.53
2018-06-11T12:25:09.519Z,5.10
2018-06-11T12:27:43.811Z,4.43
2018-06-11T12:30:18.679Z,5.23
2018-06-11T12:32:53.214Z,4.63
2018-06-11T12:35:28.062Z,4.80
2018-06-11T12:38:02.551Z,5.43
2018-06-11T12:40:37.385Z,5.50
2018-06-11T12:43:12.027Z,5.70
2018-06-11T12:45:46.883Z,5.27
2018-06-11T12:48:21.810Z,4.33
2018-06-11T12:50:57.284Z,5.23
2018-06-11T12:53:31.532Z,4.93
2018-06-11T12:56:06.303Z,5.50
2018-06-11T12:58:41.113Z,4.90
2018-06-11T13:01:15.650Z,5.07
2018-06-11T13:03:50.386Z,3.87
2018-06-11T13:06:24.957Z,5.00
2018-06-11T13:08:59.345Z,4.73
2018-06-11T13:11:34.076Z,3.40
2018-06-11T13:14:08.455Z,4.57
2018-06-11T13:16:43.426Z,3.63
2018-06-11T13:19:18.021Z,5.20
2018-06-11T13:21:52.577Z,3.53
2018-06-11T13:24:27.342Z,4.60
2018-06-11T13:27:01.986Z,4.00
2018-06-11T13:29:36.799Z,3.90
2018-06-11T13:32:11.484Z,3.30
2018-06-11T13:34:46.173Z,4.07
2018-06-11T13:37:21.396Z,4.10
2018-06-11T13:39:55.926Z,4.10
2018-06-11T13:42:30.543Z,5.00
2018-06-11T13:45:05.403Z,4.40
2018-06-11T13:47:39.695Z,5.20
2018-06-11T13:50:14.892Z,5.90
2018-06-11T13:52:49.083Z,5.07
2018-06-11T13:55:23.822Z,3.90
2018-06-11T13:57:58.473Z,3.63
2018-06-11T14:00:33.111Z,3.90
2018-06-11T14:03:08.159Z,4.47
2018-06-11T14:05:43.040Z,4.50
2018-06-11T14:08:17.475Z,5.23
2018-06-11T14:10:52.107Z,5.30
2018-06-11T14:13:26.959Z,4.37
2018-06-11T14:16:02.235Z,5.40
2018-06-11T14:18:36.521Z,4.97
2018-06-11T14:21:11.228Z,5.37
2018-06-11T14:23:45.716Z,4.57
2018-06-11T14:26:20.369Z,4.17
2018-06-11T14:28:55.112Z,4.13
2018-06-11T14:31:29.861Z,5.10
2018-06-11T14:34:04.954Z,5.90
2018-06-11T14:36:39.460Z,6.00
2018-06-11T14:39:14.188Z,4.90
2018-06-11T14:41:48.653Z,4.97
2018-06-11T14:44:23.431Z,6.77
2018-06-11T14:46:58.172Z,6.10
2018-06-11T14:49:32.871Z,4.07
2018-06-11T14:52:07.462Z,4.43
2018-06-11T14:54:42.290Z,5.03
2018-06-11T14:57:16.944Z,5.43
2018-06-11T14:59:51.533Z,6.73
2018-06-11T15:02:26.212Z,4.90
2018-06-11T15:05:01.010Z,4.30
2018-06-11T15:07:35.638Z,4.33
2018-06-11T15:10:10.345Z,5.63
2018-06-11T15:12:45.329Z,5.13
2018-06-11T15:15:19.760Z,3.33
2018-06-11T15:17:54.416Z,5.13
2018-06-11T15:20:29.722Z,5.70
2018-06-11T15:23:04.592Z,5.27
2018-06-11T15:25:39.641Z,5.00
2018-06-11T15:28:14.261Z,5.10
2018-06-11T15:30:49.191Z,4.90
2018-06-11T15:33:24.260Z,4.60
2018-06-11T15:35:58.711Z,5.20
2018-06-11T15:38:33.591Z,4.97
2018-06-11T15:41:08.233Z,4.10
2018-06-11T15:43:42.989Z,4.33
2018-06-11T15:46:17.634Z,4.70
2018-06-11T15:48:52.397Z,3.73
2018-06-11T15:51:27.469Z,4.70
2018-06-11T15:54:02.261Z,4.60
2018-06-11T15:56:36.652Z,4.57
2018-06-11T15:59:11.310Z,4.10
2018-06-11T16:01:46.745Z,4.97
2018-06-11T16:04:21.623Z,4.70
2018-06-11T16:06:56.050Z,4.80
2018-06-11T16:09:30.599Z,5.60
2018-06-11T16:12:05.376Z,4.53
2018-06-11T16:14:39.818Z,5.17
2018-06-11T16:17:14.506Z,5.27
2018-06-11T16:19:49.392Z,5.50
2018-06-11T16:22:24.033Z,4.43
2018-06-11T16:24:58.660Z,4.90
2018-06-11T16:27:33.601Z,4.90
2018-06-11T16:30:08.302Z,5.63
2018-06-11T16:32:43.019Z,5.30
2018-06-11T16:35:17.571Z,4.87
2018-06-11T16:37:52.422Z,5.20
2018-06-11T16:40:27.070Z,4.03
2018-06-11T16:43:01.980Z,5.43
2018-06-11T16:45:36.592Z,3.90
2018-06-11T16:48:11.534Z,5.70
2018-06-11T16:50:46.261Z,7.10
2018-06-11T16:53:28.245Z,3.87
2018-06-11T16:56:05.923Z,4.60
2018-06-11T16:58:43.153Z,3.77
2018-06-11T17:01:18.994Z,3.53
2018-06-11T17:03:53.679Z,4.00
2018-06-11T17:06:28.984Z,4.47
2018-06-11T17:09:09.253Z,3.60
2018-06-11T17:11:43.446Z,3.93
2018-06-11T17:14:17.966Z,5.63
2018-06-11T17:16:52.868Z,4.30
2018-06-11T17:19:27.346Z,4.50
2018-06-11T17:22:01.763Z,5.20
2018-06-11T17:24:36.562Z,4.60
2018-06-11T17:27:11.344Z,5.50
2018-06-11T17:29:46.018Z,5.17
2018-06-11T17:32:20.867Z,4.00
2018-06-11T17:34:55.289Z,3.77
2018-06-11T17:37:29.857Z,4.70
2018-06-11T17:40:04.564Z,6.53
2018-06-11T17:42:39.572Z,5.73
2018-06-11T17:45:13.829Z,4.63
2018-06-11T17:47:48.320Z,5.37
2018-06-11T17:50:22.812Z,4.70
2018-06-11T17:52:57.318Z,4.63
2018-06-11T17:55:31.836Z,5.17
2018-06-11T17:58:06.357Z,5.10
2018-06-11T18:00:40.932Z,4.60
2018-06-11T18:03:15.476Z,5.43
2018-06-11T18:05:50.210Z,5.80
2018-06-11T18:08:25.054Z,5.60
2018-06-11T18:10:59.594Z,4.87
2018-06-11T18:13:34.635Z,5.83
2018-06-11T18:16:09.471Z,4.13
2018-06-11T18:18:44.987Z,5.47
2018-06-11T18:21:20.173Z,5.20
2018-06-11T18:23:55.090Z,4.00
2018-06-11T18:26:29.830Z,5.13
2018-06-11T18:29:04.067Z,5.43
2018-06-11T18:31:38.933Z,4.00
2018-06-11T18:34:13.592Z,4.63
2018-06-11T18:36:48.415Z,4.33
2018-06-11T18:39:23.023Z,4.17
2018-06-11T18:41:57.965Z,4.23
2018-06-11T18:44:33.757Z,4.80
2018-06-11T18:47:10.670Z,3.90
2018-06-11T18:49:48.222Z,4.43
2018-06-11T18:52:25.514Z,3.97
2018-06-11T18:55:03.226Z,3.97
2018-06-11T18:57:40.294Z,4.03
2018-06-11T19:00:17.928Z,3.90
2018-06-11T19:02:55.732Z,3.37
2018-06-11T19:05:33.452Z,3.77
2018-06-11T19:08:11.916Z,3.47
2018-06-11T19:10:49.094Z,2.90
2018-06-11T19:13:26.915Z,3.33
2018-06-11T19:16:04.946Z,3.87
2018-06-11T19:18:43.276Z,3.87
2018-06-11T19:21:21.064Z,3.23
2018-06-11T19:23:59.715Z,4.20
2018-06-11T19:26:37.824Z,3.83
2018-06-11T19:29:15.315Z,3.80
2018-06-11T19:31:52.631Z,3.57
2018-06-11T19:34:31.127Z,4.00
2018-06-11T19:37:09.010Z,4.10
2018-06-11T19:39:46.955Z,3.97
2018-06-11T19:42:24.441Z,4.10
2018-06-11T19:45:07.397Z,3.97
2018-06-11T19:47:44.897Z,4.87
2018-06-11T19:50:23.563Z,3.80
2018-06-11T19:53:01.485Z,3.87
2018-06-11T19:55:39.143Z,4.50
2018-06-11T19:58:16.861Z,4.07
2018-06-11T20:00:54.865Z,4.00
2018-06-11T20:03:33.040Z,4.90
2018-06-11T20:06:10.786Z,4.20
2018-06-11T20:08:47.745Z,4.60
2018-06-11T20:11:25.991Z,4.20
2018-06-11T20:14:03.619Z,3.60
2018-06-11T20:16:41.333Z,3.90
2018-06-11T20:19:18.626Z,4.40
2018-06-11T20:21:54.721Z,3.63
2018-06-11T20:24:30.609Z,4.40
2018-06-11T20:27:05.633Z,4.20
2018-06-11T20:29:40.276Z,4.70
2018-06-11T20:32:14.490Z,4.90
2018-06-11T20:34:49.107Z,5.03
2018-06-11T20:37:23.830Z,4.53
2018-06-11T20:39:58.471Z,4.00
2018-06-11T20:42:33.179Z,4.47
2018-06-11T20:45:07.725Z,4.33
2018-06-11T20:47:42.756Z,4.30
2018-06-11T20:50:17.062Z,3.97
2018-06-11T20:52:51.777Z,4.57
2018-06-11T20:55:26.362Z,4.10
2018-06-11T20:58:01.133Z,3.10
2018-06-11T21:00:35.826Z,4.00
2018-06-11T21:03:10.682Z,4.50
2018-06-11T21:05:45.461Z,5.30
2018-06-11T21:08:20.278Z,5.23
2018-06-11T21:10:55.473Z,4.60
2018-06-11T21:13:29.903Z,5.10
2018-06-11T21:16:04.331Z,4.00
2018-06-11T21:18:38.973Z,4.70
2018-06-11T21:21:13.601Z,5.00
2018-06-11T21:23:48.118Z,5.50
2018-06-11T21:26:22.870Z,5.53
2018-06-11T21:28:57.507Z,4.60
2018-06-11T21:31:32.164Z,5.17
2018-06-11T21:34:06.943Z,5.17
2018-06-11T21:36:42.009Z,4.70
2018-06-11T21:39:16.390Z,5.00
2018-06-11T21:41:51.071Z,4.57
2018-06-11T21:44:25.929Z,4.17
2018-06-11T21:47:00.607Z,3.80
2018-06-11T21:49:35.393Z,4.90
2018-06-11T21:52:10.139Z,5.07
2018-06-11T21:54:44.734Z,4.13
2018-06-11T21:57:19.401Z,5.10
2018-06-11T21:59:54.056Z,4.80
2018-06-11T22:02:28.705Z,4.90
2018-06-11T22:05:03.580Z,4.57
2018-06-11T22:07:38.053Z,4.57
2018-06-11T22:10:12.881Z,5.13
2018-06-11T22:12:47.518Z,4.57
2018-06-11T22:15:22.516Z,5.90
2018-06-11T22:17:57.166Z,5.07
2018-06-11T22:20:31.732Z,5.13
2018-06-11T22:23:06.660Z,5.80
2018-06-11T22:25:41.309Z,5.80
2018-06-11T22:28:15.941Z,5.20
2018-06-11T22:30:50.681Z,5.73
2018-06-11T22:33:25.346Z,4.63
2018-06-11T22:36:00.068Z,5.83
2018-06-11T22:38:34.671Z,5.47
2018-06-11T22:41:09.356Z,4.60
2018-06-11T22:43:44.106Z,3.77
2018-06-11T22:46:19.175Z,4.17
2018-06-11T22:48:53.398Z,3.70
2018-06-11T22:51:28.266Z,3.20
2018-06-11T22:54:02.710Z,4.00
2018-06-11T22:56:37.259Z,4.00
2018-06-11T22:59:11.861Z,3.77
2018-06-11T23:01:46.906Z,4.07
2018-06-11T23:04:21.157Z,4.10
2018-06-11T23:06:56.191Z,4.70
2018-06-11T23:09:30.454Z,4.10
2018-06-11T23:12:05.412Z,4.20
2018-06-11T23:14:39.812Z,4.00
2018-06-11T23:17:14.456Z,4.13
2018-06-11T23:19:49.167Z,4.60
2018-06-11T23:22:24.179Z,4.63
2018-06-11T23:24:58.609Z,4.63
2018-06-11T23:27:33.140Z,4.40
2018-06-11T23:30:07.861Z,3.93
2018-06-11T23:32:42.532Z,3.23
2018-06-11T23:35:17.098Z,4.23
2018-06-11T23:37:52.073Z,4.00
2018-06-11T23:40:26.600Z,3.80
2018-06-11T23:51:59.643Z,4.00
2018-06-11T23:54:34.326Z,3.07
2018-06-11T23:57:09.016Z,4.23
2018-06-11T23:59:43.831Z,3.97
